sensor_id;sensor_type;location;lat;lon;timestamp;P1;durP1;ratioP1;P2;durP2;ratioP2
4652;SDS011;9900;48.738;9.306;2023-04-25T00:01:28;3.63;;;2.33;;
4652;SDS011;9900;48.738;9.306;2023-04-25T00:03:56;2.77;;;2.57;;
4652;SDS011;9900;48.738;9.306;2023-04-25T00:06:25;3.23;;;2.50;;
4652;SDS011;9900;48.738;9.306;2023-04-25T00:08:54;2.63;;;2.27;;
4652;SDS011;9900;48.738;9.306;2023-04-25T00:11:23;3.27;;;2.50;;
4652;SDS011;9900;48.738;9.306;2023-04-25T00:13:52;2.47;;;2.27;;
4652;SDS011;9900;48.738;9.306;2023-04-25T00:16:21;2.43;;;2.23;;
4652;SDS011;9900;48.738;9.306;2023-04-25T00:18:52;3.63;;;2.20;;
4652;SDS011;9900;48.738;9.306;2023-04-25T00:21:21;1.93;;;1.70;;
4652;SDS011;9900;48.738;9.306;2023-04-25T00:23:52;2.33;;;2.13;;
4652;SDS011;9900;48.738;9.306;2023-04-25T00:26:21;3.53;;;2.20;;
4652;SDS011;9900;48.738;9.306;2023-04-25T00:28:49;3.43;;;2.10;;
4652;SDS011;9900;48.738;9.306;2023-04-25T00:31:18;1.97;;;1.87;;
4652;SDS011;9900;48.738;9.306;2023-04-25T00:33:47;3.43;;;2.00;;
4652;SDS011;9900;48.738;9.306;2023-04-25T00:36:17;1.90;;;1.80;;
4652;SDS011;9900;48.738;9.306;2023-04-25T00:38:46;2.07;;;1.80;;
4652;SDS011;9900;48.738;9.306;2023-04-25T00:41:14;3.90;;;2.07;;
4652;SDS011;9900;48.738;9.306;2023-04-25T00:43:43;2.33;;;1.83;;
4652;SDS011;9900;48.738;9.306;2023-04-25T00:46:12;4.33;;;2.50;;
4652;SDS011;9900;48.738;9.306;2023-04-25T00:48:41;4.13;;;2.40;;
4652;SDS011;9900;48.738;9.306;2023-04-25T00:51:10;4.77;;;2.63;;
4652;SDS011;9900;48.738;9.306;2023-04-25T00:53:43;2.60;;;2.40;;
4652;SDS011;9900;48.738;9.306;2023-04-25T00:56:12;2.17;;;2.07;;
4652;SDS011;9900;48.738;9.306;2023-04-25T00:58:41;2.20;;;2.03;;
4652;SDS011;9900;48.738;9.306;2023-04-25T01:01:10;2.60;;;2.23;;
4652;SDS011;9900;48.738;9.306;2023-04-25T01:03:40;2.37;;;2.17;;
4652;SDS011;9900;48.738;9.306;2023-04-25T01:06:09;4.03;;;2.20;;
4652;SDS011;9900;48.738;9.306;2023-04-25T01:08:38;4.03;;;2.27;;
4652;SDS011;9900;48.738;9.306;2023-04-25T01:11:09;3.53;;;2.20;;
4652;SDS011;9900;48.738;9.306;2023-04-25T01:13:37;2.77;;;2.00;;
4652;SDS011;9900;48.738;9.306;2023-04-25T01:16:06;3.30;;;2.70;;
4652;SDS011;9900;48.738;9.306;2023-04-25T01:18:35;6.20;;;1.83;;
4652;SDS011;9900;48.738;9.306;2023-04-25T01:21:08;3.10;;;2.27;;
4652;SDS011;9900;48.738;9.306;2023-04-25T01:23:37;3.10;;;2.30;;
4652;SDS011;9900;48.738;9.306;2023-04-25T01:26:07;2.50;;;2.30;;
4652;SDS011;9900;48.738;9.306;2023-04-25T01:28:37;3.77;;;2.00;;
4652;SDS011;9900;48.738;9.306;2023-04-25T01:31:08;2.90;;;2.10;;
4652;SDS011;9900;48.738;9.306;2023-04-25T01:33:37;5.70;;;2.43;;
4652;SDS011;9900;48.738;9.306;2023-04-25T01:36:06;4.27;;;2.20;;
4652;SDS011;9900;48.738;9.306;2023-04-25T01:38:36;3.53;;;2.30;;
4652;SDS011;9900;48.738;9.306;2023-04-25T01:41:04;6.03;;;2.60;;
4652;SDS011;9900;48.738;9.306;2023-04-25T01:43:33;4.70;;;2.60;;
4652;SDS011;9900;48.738;9.306;2023-04-25T01:46:02;3.07;;;2.10;;
4652;SDS011;9900;48.738;9.306;2023-04-25T01:48:31;3.37;;;2.27;;
4652;SDS011;9900;48.738;9.306;2023-04-25T01:51:00;2.20;;;2.07;;
4652;SDS011;9900;48.738;9.306;2023-04-25T01:53:30;3.50;;;2.60;;
4652;SDS011;9900;48.738;9.306;2023-04-25T01:55:58;4.03;;;3.00;;
4652;SDS011;9900;48.738;9.306;2023-04-25T01:58:27;4.87;;;2.23;;
4652;SDS011;9900;48.738;9.306;2023-04-25T02:00:55;5.40;;;2.83;;
4652;SDS011;9900;48.738;9.306;2023-04-25T02:03:25;2.60;;;2.40;;
4652;SDS011;9900;48.738;9.306;2023-04-25T02:05:54;3.63;;;2.67;;
4652;SDS011;9900;48.738;9.306;2023-04-25T02:08:23;2.77;;;2.57;;
4652;SDS011;9900;48.738;9.306;2023-04-25T02:10:54;2.13;;;2.03;;
4652;SDS011;9900;48.738;9.306;2023-04-25T02:13:23;6.53;;;2.60;;
4652;SDS011;9900;48.738;9.306;2023-04-25T02:15:51;2.70;;;2.30;;
4652;SDS011;9900;48.738;9.306;2023-04-25T02:18:20;5.00;;;2.60;;
4652;SDS011;9900;48.738;9.306;2023-04-25T02:20:49;5.33;;;2.50;;
4652;SDS011;9900;48.738;9.306;2023-04-25T02:23:17;6.40;;;2.37;;
4652;SDS011;9900;48.738;9.306;2023-04-25T02:25:46;5.00;;;2.40;;
4652;SDS011;9900;48.738;9.306;2023-04-25T02:28:17;3.33;;;2.10;;
4652;SDS011;9900;48.738;9.306;2023-04-25T02:30:45;2.27;;;1.70;;
4652;SDS011;9900;48.738;9.306;2023-04-25T02:33:14;3.60;;;1.90;;
4652;SDS011;9900;48.738;9.306;2023-04-25T02:35:44;2.50;;;2.10;;
4652;SDS011;9900;48.738;9.306;2023-04-25T02:38:12;1.73;;;1.60;;
4652;SDS011;9900;48.738;9.306;2023-04-25T02:40:41;2.77;;;1.90;;
4652;SDS011;9900;48.738;9.306;2023-04-25T02:43:10;2.37;;;1.53;;
4652;SDS011;9900;48.738;9.306;2023-04-25T02:45:40;4.17;;;1.97;;
4652;SDS011;9900;48.738;9.306;2023-04-25T02:48:08;2.17;;;1.60;;
4652;SDS011;9900;48.738;9.306;2023-04-25T02:50:37;2.43;;;1.67;;
4652;SDS011;9900;48.738;9.306;2023-04-25T02:53:06;1.83;;;1.40;;
4652;SDS011;9900;48.738;9.306;2023-04-25T02:55:34;2.47;;;1.70;;
4652;SDS011;9900;48.738;9.306;2023-04-25T02:58:04;2.03;;;1.70;;
4652;SDS011;9900;48.738;9.306;2023-04-25T03:00:32;4.03;;;1.70;;
4652;SDS011;9900;48.738;9.306;2023-04-25T03:03:02;3.03;;;1.50;;
4652;SDS011;9900;48.738;9.306;2023-04-25T03:05:31;2.03;;;1.23;;
4652;SDS011;9900;48.738;9.306;2023-04-25T03:08:00;2.00;;;1.53;;
4652;SDS011;9900;48.738;9.306;2023-04-25T03:10:28;2.23;;;1.60;;
4652;SDS011;9900;48.738;9.306;2023-04-25T03:12:57;2.30;;;1.30;;
4652;SDS011;9900;48.738;9.306;2023-04-25T03:15:26;1.50;;;1.40;;
4652;SDS011;9900;48.738;9.306;2023-04-25T03:17:54;2.10;;;1.90;;
4652;SDS011;9900;48.738;9.306;2023-04-25T03:20:24;1.63;;;1.53;;
4652;SDS011;9900;48.738;9.306;2023-04-25T03:22:53;2.60;;;1.50;;
4652;SDS011;9900;48.738;9.306;2023-04-25T03:25:22;3.20;;;1.60;;
4652;SDS011;9900;48.738;9.306;2023-04-25T03:27:50;3.63;;;1.83;;
4652;SDS011;9900;48.738;9.306;2023-04-25T03:30:19;4.80;;;1.90;;
4652;SDS011;9900;48.738;9.306;2023-04-25T03:32:48;3.00;;;1.83;;
4652;SDS011;9900;48.738;9.306;2023-04-25T03:35:17;4.13;;;1.67;;
4652;SDS011;9900;48.738;9.306;2023-04-25T03:37:47;4.43;;;2.20;;
4652;SDS011;9900;48.738;9.306;2023-04-25T03:40:15;1.73;;;1.63;;
4652;SDS011;9900;48.738;9.306;2023-04-25T03:42:44;2.60;;;1.93;;
4652;SDS011;9900;48.738;9.306;2023-04-25T03:45:13;2.03;;;1.73;;
4652;SDS011;9900;48.738;9.306;2023-04-25T03:47:41;2.23;;;1.83;;
4652;SDS011;9900;48.738;9.306;2023-04-25T03:50:10;2.13;;;1.90;;
4652;SDS011;9900;48.738;9.306;2023-04-25T03:52:38;1.87;;;1.77;;
4652;SDS011;9900;48.738;9.306;2023-04-25T03:55:09;1.60;;;1.50;;
4652;SDS011;9900;48.738;9.306;2023-04-25T03:57:38;3.83;;;1.80;;
4652;SDS011;9900;48.738;9.306;2023-04-25T04:00:07;2.33;;;1.63;;
4652;SDS011;9900;48.738;9.306;2023-04-25T04:02:37;2.30;;;2.03;;
4652;SDS011;9900;48.738;9.306;2023-04-25T04:05:08;3.37;;;2.20;;
4652;SDS011;9900;48.738;9.306;2023-04-25T04:07:37;2.20;;;2.00;;
4652;SDS011;9900;48.738;9.306;2023-04-25T04:10:09;3.90;;;2.30;;
4652;SDS011;9900;48.738;9.306;2023-04-25T04:12:38;1.80;;;1.70;;
4652;SDS011;9900;48.738;9.306;2023-04-25T04:15:07;3.63;;;1.73;;
4652;SDS011;9900;48.738;9.306;2023-04-25T04:17:37;3.63;;;2.23;;
4652;SDS011;9900;48.738;9.306;2023-04-25T04:20:06;3.13;;;1.80;;
4652;SDS011;9900;48.738;9.306;2023-04-25T04:22:35;6.70;;;1.80;;
4652;SDS011;9900;48.738;9.306;2023-04-25T04:25:05;5.10;;;2.23;;
4652;SDS011;9900;48.738;9.306;2023-04-25T04:27:35;2.53;;;2.30;;
4652;SDS011;9900;48.738;9.306;2023-04-25T04:30:04;3.93;;;2.27;;
4652;SDS011;9900;48.738;9.306;2023-04-25T04:32:34;2.70;;;2.30;;
4652;SDS011;9900;48.738;9.306;2023-04-25T04:35:03;4.77;;;2.27;;
4652;SDS011;9900;48.738;9.306;2023-04-25T04:37:33;3.03;;;2.10;;
4652;SDS011;9900;48.738;9.306;2023-04-25T04:40:02;2.90;;;1.80;;
4652;SDS011;9900;48.738;9.306;2023-04-25T04:42:32;2.30;;;2.10;;
4652;SDS011;9900;48.738;9.306;2023-04-25T04:45:02;5.87;;;2.50;;
4652;SDS011;9900;48.738;9.306;2023-04-25T04:47:32;3.63;;;2.20;;
4652;SDS011;9900;48.738;9.306;2023-04-25T04:50:01;4.23;;;2.03;;
4652;SDS011;9900;48.738;9.306;2023-04-25T04:52:30;4.50;;;2.53;;
4652;SDS011;9900;48.738;9.306;2023-04-25T04:54:58;5.23;;;2.53;;
4652;SDS011;9900;48.738;9.306;2023-04-25T04:57:28;3.47;;;2.20;;
4652;SDS011;9900;48.738;9.306;2023-04-25T04:59:56;2.33;;;2.13;;
4652;SDS011;9900;48.738;9.306;2023-04-25T05:02:26;2.27;;;1.97;;
4652;SDS011;9900;48.738;9.306;2023-04-25T05:04:55;5.13;;;2.30;;
4652;SDS011;9900;48.738;9.306;2023-04-25T05:07:24;2.10;;;2.00;;
4652;SDS011;9900;48.738;9.306;2023-04-25T05:09:53;2.93;;;2.27;;
4652;SDS011;9900;48.738;9.306;2023-04-25T05:12:22;5.80;;;2.43;;
4652;SDS011;9900;48.738;9.306;2023-04-25T05:14:50;3.23;;;2.07;;
4652;SDS011;9900;48.738;9.306;2023-04-25T05:17:19;5.70;;;2.13;;
4652;SDS011;9900;48.738;9.306;2023-04-25T05:19:49;6.07;;;2.77;;
4652;SDS011;9900;48.738;9.306;2023-04-25T05:22:18;4.20;;;2.27;;
4652;SDS011;9900;48.738;9.306;2023-04-25T05:24:47;5.93;;;2.17;;
4652;SDS011;9900;48.738;9.306;2023-04-25T05:27:16;4.37;;;2.07;;
4652;SDS011;9900;48.738;9.306;2023-04-25T05:29:44;2.50;;;2.30;;
4652;SDS011;9900;48.738;9.306;2023-04-25T05:32:13;3.20;;;2.90;;
4652;SDS011;9900;48.738;9.306;2023-04-25T05:34:42;2.23;;;2.00;;
4652;SDS011;9900;48.738;9.306;2023-04-25T05:37:12;2.87;;;2.20;;
4652;SDS011;9900;48.738;9.306;2023-04-25T05:39:41;5.97;;;2.13;;
4652;SDS011;9900;48.738;9.306;2023-04-25T05:42:10;2.60;;;2.40;;
4652;SDS011;9900;48.738;9.306;2023-04-25T05:44:38;4.50;;;2.13;;
4652;SDS011;9900;48.738;9.306;2023-04-25T05:47:07;10.23;;;2.70;;
4652;SDS011;9900;48.738;9.306;2023-04-25T05:49:36;2.33;;;2.23;;
4652;SDS011;9900;48.738;9.306;2023-04-25T05:52:04;5.90;;;2.47;;
4652;SDS011;9900;48.738;9.306;2023-04-25T05:54:34;3.60;;;2.33;;
4652;SDS011;9900;48.738;9.306;2023-04-25T05:57:03;3.60;;;2.30;;
4652;SDS011;9900;48.738;9.306;2023-04-25T05:59:32;6.03;;;2.30;;
4652;SDS011;9900;48.738;9.306;2023-04-25T06:02:00;6.37;;;2.40;;
4652;SDS011;9900;48.738;9.306;2023-04-25T06:04:29;6.80;;;2.13;;
4652;SDS011;9900;48.738;9.306;2023-04-25T06:06:58;5.47;;;2.10;;
4652;SDS011;9900;48.738;9.306;2023-04-25T06:09:27;4.80;;;2.90;;
4652;SDS011;9900;48.738;9.306;2023-04-25T06:11:57;5.13;;;2.37;;
4652;SDS011;9900;48.738;9.306;2023-04-25T06:14:25;4.00;;;2.60;;
4652;SDS011;9900;48.738;9.306;2023-04-25T06:16:56;2.70;;;2.50;;
4652;SDS011;9900;48.738;9.306;2023-04-25T06:19:24;2.83;;;1.83;;
4652;SDS011;9900;48.738;9.306;2023-04-25T06:21:53;3.90;;;2.00;;
4652;SDS011;9900;48.738;9.306;2023-04-25T06:24:22;5.40;;;2.10;;
4652;SDS011;9900;48.738;9.306;2023-04-25T06:26:50;2.70;;;2.00;;
4652;SDS011;9900;48.738;9.306;2023-04-25T06:29:21;2.50;;;1.90;;
4652;SDS011;9900;48.738;9.306;2023-04-25T06:31:50;3.90;;;2.23;;
4652;SDS011;9900;48.738;9.306;2023-04-25T06:34:19;4.80;;;2.53;;
4652;SDS011;9900;48.738;9.306;2023-04-25T06:36:48;4.43;;;2.10;;
4652;SDS011;9900;48.738;9.306;2023-04-25T06:39:16;1.90;;;1.77;;
4652;SDS011;9900;48.738;9.306;2023-04-25T06:41:47;2.90;;;2.10;;
4652;SDS011;9900;48.738;9.306;2023-04-25T06:44:15;2.10;;;1.90;;
4652;SDS011;9900;48.738;9.306;2023-04-25T06:46:45;2.53;;;2.17;;
4652;SDS011;9900;48.738;9.306;2023-04-25T06:49:14;4.27;;;1.80;;
4652;SDS011;9900;48.738;9.306;2023-04-25T06:51:43;2.50;;;1.87;;
4652;SDS011;9900;48.738;9.306;2023-04-25T06:54:11;2.50;;;2.20;;
4652;SDS011;9900;48.738;9.306;2023-04-25T06:56:40;5.13;;;1.73;;
4652;SDS011;9900;48.738;9.306;2023-04-25T06:59:09;2.87;;;2.13;;
4652;SDS011;9900;48.738;9.306;2023-04-25T07:01:37;3.40;;;2.03;;
4652;SDS011;9900;48.738;9.306;2023-04-25T07:04:08;2.23;;;2.03;;
4652;SDS011;9900;48.738;9.306;2023-04-25T07:06:37;4.37;;;2.30;;
4652;SDS011;9900;48.738;9.306;2023-04-25T07:09:09;3.93;;;2.13;;
4652;SDS011;9900;48.738;9.306;2023-04-25T07:11:38;4.00;;;1.93;;
4652;SDS011;9900;48.738;9.306;2023-04-25T07:14:07;2.67;;;1.83;;
4652;SDS011;9900;48.738;9.306;2023-04-25T07:16:35;2.70;;;1.97;;
4652;SDS011;9900;48.738;9.306;2023-04-25T07:19:04;6.50;;;2.23;;
4652;SDS011;9900;48.738;9.306;2023-04-25T07:21:34;2.63;;;2.30;;
4652;SDS011;9900;48.738;9.306;2023-04-25T07:24:04;1.83;;;1.73;;
4652;SDS011;9900;48.738;9.306;2023-04-25T07:26:33;4.50;;;2.57;;
4652;SDS011;9900;48.738;9.306;2023-04-25T07:29:02;2.37;;;2.17;;
4652;SDS011;9900;48.738;9.306;2023-04-25T07:31:30;2.47;;;2.03;;
4652;SDS011;9900;48.738;9.306;2023-04-25T07:33:59;2.80;;;2.40;;
4652;SDS011;9900;48.738;9.306;2023-04-25T07:36:28;2.70;;;2.43;;
4652;SDS011;9900;48.738;9.306;2023-04-25T07:38:59;2.10;;;2.00;;
4652;SDS011;9900;48.738;9.306;2023-04-25T07:41:28;2.40;;;2.20;;
4652;SDS011;9900;48.738;9.306;2023-04-25T07:43:57;5.10;;;2.33;;
4652;SDS011;9900;48.738;9.306;2023-04-25T07:46:25;3.50;;;2.10;;
4652;SDS011;9900;48.738;9.306;2023-04-25T07:48:54;3.20;;;2.20;;
4652;SDS011;9900;48.738;9.306;2023-04-25T07:51:23;2.87;;;2.17;;
4652;SDS011;9900;48.738;9.306;2023-04-25T07:53:51;2.73;;;2.50;;
4652;SDS011;9900;48.738;9.306;2023-04-25T07:56:21;2.67;;;2.20;;
4652;SDS011;9900;48.738;9.306;2023-04-25T07:58:50;3.23;;;3.00;;
4652;SDS011;9900;48.738;9.306;2023-04-25T08:01:19;2.50;;;2.30;;
4652;SDS011;9900;48.738;9.306;2023-04-25T08:03:48;2.23;;;2.13;;
4652;SDS011;9900;48.738;9.306;2023-04-25T08:06:17;4.63;;;2.70;;
4652;SDS011;9900;48.738;9.306;2023-04-25T08:08:46;3.70;;;2.53;;
4652;SDS011;9900;48.738;9.306;2023-04-25T08:11:15;3.73;;;2.60;;
4652;SDS011;9900;48.738;9.306;2023-04-25T08:13:46;3.77;;;2.63;;
4652;SDS011;9900;48.738;9.306;2023-04-25T08:16:14;3.17;;;2.60;;
4652;SDS011;9900;48.738;9.306;2023-04-25T08:18:43;4.60;;;3.20;;
4652;SDS011;9900;48.738;9.306;2023-04-25T08:21:12;3.97;;;3.10;;
4652;SDS011;9900;48.738;9.306;2023-04-25T08:23:41;6.57;;;3.47;;
4652;SDS011;9900;48.738;9.306;2023-04-25T08:26:09;5.60;;;3.57;;
4652;SDS011;9900;48.738;9.306;2023-04-25T08:28:38;4.90;;;3.60;;
4652;SDS011;9900;48.738;9.306;2023-04-25T08:31:08;5.97;;;4.00;;
4652;SDS011;9900;48.738;9.306;2023-04-25T08:33:37;4.00;;;3.70;;
4652;SDS011;9900;48.738;9.306;2023-04-25T08:36:06;7.57;;;4.67;;
4652;SDS011;9900;48.738;9.306;2023-04-25T08:38:35;4.47;;;4.03;;
4652;SDS011;9900;48.738;9.306;2023-04-25T08:41:04;5.00;;;3.87;;
4652;SDS011;9900;48.738;9.306;2023-04-25T08:43:33;4.47;;;4.00;;
4652;SDS011;9900;48.738;9.306;2023-04-25T08:46:05;5.50;;;4.30;;
4652;SDS011;9900;48.738;9.306;2023-04-25T08:48:35;5.47;;;4.30;;
4652;SDS011;9900;48.738;9.306;2023-04-25T08:51:04;6.80;;;4.27;;
4652;SDS011;9900;48.738;9.306;2023-04-25T08:53:36;5.13;;;3.90;;
4652;SDS011;9900;48.738;9.306;2023-04-25T08:56:05;5.40;;;4.37;;
4652;SDS011;9900;48.738;9.306;2023-04-25T08:58:36;5.70;;;4.37;;
4652;SDS011;9900;48.738;9.306;2023-04-25T09:01:05;4.20;;;3.80;;
4652;SDS011;9900;48.738;9.306;2023-04-25T09:03:36;6.50;;;4.00;;
4652;SDS011;9900;48.738;9.306;2023-04-25T09:06:05;5.20;;;3.77;;
4652;SDS011;9900;48.738;9.306;2023-04-25T09:08:33;6.97;;;3.77;;
4652;SDS011;9900;48.738;9.306;2023-04-25T09:11:04;5.33;;;4.37;;
4652;SDS011;9900;48.738;9.306;2023-04-25T09:13:33;4.83;;;4.07;;
4652;SDS011;9900;48.738;9.306;2023-04-25T09:16:02;4.53;;;4.13;;
4652;SDS011;9900;48.738;9.306;2023-04-25T09:18:31;7.93;;;4.30;;
4652;SDS011;9900;48.738;9.306;2023-04-25T09:21:06;6.43;;;4.90;;
4652;SDS011;9900;48.738;9.306;2023-04-25T09:23:41;5.47;;;4.60;;
4652;SDS011;9900;48.738;9.306;2023-04-25T09:26:13;15.53;;;4.27;;
4652;SDS011;9900;48.738;9.306;2023-04-25T09:28:43;6.10;;;4.50;;
4652;SDS011;9900;48.738;9.306;2023-04-25T09:31:20;5.80;;;4.40;;
4652;SDS011;9900;48.738;9.306;2023-04-25T09:33:50;6.00;;;4.97;;
4652;SDS011;9900;48.738;9.306;2023-04-25T09:36:29;5.83;;;5.23;;
4652;SDS011;9900;48.738;9.306;2023-04-25T09:38:59;7.23;;;4.70;;
4652;SDS011;9900;48.738;9.306;2023-04-25T09:41:28;5.60;;;5.00;;
4652;SDS011;9900;48.738;9.306;2023-04-25T09:43:56;7.00;;;4.87;;
4652;SDS011;9900;48.738;9.306;2023-04-25T09:46:32;6.63;;;4.97;;
4652;SDS011;9900;48.738;9.306;2023-04-25T09:49:05;5.13;;;4.30;;
4652;SDS011;9900;48.738;9.306;2023-04-25T09:51:36;6.27;;;4.50;;
4652;SDS011;9900;48.738;9.306;2023-04-25T09:54:04;5.63;;;5.03;;
4652;SDS011;9900;48.738;9.306;2023-04-25T09:56:35;5.53;;;4.90;;
4652;SDS011;9900;48.738;9.306;2023-04-25T09:59:04;5.77;;;4.93;;
4652;SDS011;9900;48.738;9.306;2023-04-25T10:01:34;5.77;;;5.13;;
4652;SDS011;9900;48.738;9.306;2023-04-25T10:04:03;6.47;;;4.80;;
4652;SDS011;9900;48.738;9.306;2023-04-25T10:06:36;7.60;;;6.30;;
4652;SDS011;9900;48.738;9.306;2023-04-25T10:09:06;11.97;;;5.47;;
4652;SDS011;9900;48.738;9.306;2023-04-25T10:11:35;5.60;;;4.37;;
4652;SDS011;9900;48.738;9.306;2023-04-25T10:14:05;10.17;;;4.30;;
4652;SDS011;9900;48.738;9.306;2023-04-25T10:16:35;5.80;;;3.97;;
4652;SDS011;9900;48.738;9.306;2023-04-25T10:19:04;4.27;;;3.80;;
4652;SDS011;9900;48.738;9.306;2023-04-25T10:21:33;6.20;;;4.27;;
4652;SDS011;9900;48.738;9.306;2023-04-25T10:24:03;3.87;;;3.43;;
4652;SDS011;9900;48.738;9.306;2023-04-25T10:26:33;9.93;;;4.33;;
4652;SDS011;9900;48.738;9.306;2023-04-25T10:29:02;3.33;;;2.67;;
4652;SDS011;9900;48.738;9.306;2023-04-25T10:31:31;3.30;;;2.90;;
4652;SDS011;9900;48.738;9.306;2023-04-25T10:34:00;4.37;;;3.40;;
4652;SDS011;9900;48.738;9.306;2023-04-25T10:36:30;2.60;;;2.37;;
4652;SDS011;9900;48.738;9.306;2023-04-25T10:39:04;3.30;;;3.00;;
4652;SDS011;9900;48.738;9.306;2023-04-25T10:41:45;2.40;;;2.23;;
4652;SDS011;9900;48.738;9.306;2023-04-25T10:44:14;2.80;;;2.00;;
4652;SDS011;9900;48.738;9.306;2023-04-25T10:46:44;3.87;;;2.33;;
4652;SDS011;9900;48.738;9.306;2023-04-25T10:49:28;2.30;;;2.10;;
4652;SDS011;9900;48.738;9.306;2023-04-25T10:52:13;2.00;;;1.80;;
4652;SDS011;9900;48.738;9.306;2023-04-25T10:54:48;2.83;;;2.27;;
4652;SDS011;9900;48.738;9.306;2023-04-25T10:57:31;3.60;;;2.30;;
4652;SDS011;9900;48.738;9.306;2023-04-25T11:00:11;4.70;;;1.73;;
4652;SDS011;9900;48.738;9.306;2023-04-25T11:02:43;1.50;;;1.40;;
4652;SDS011;9900;48.738;9.306;2023-04-25T11:05:16;1.83;;;1.73;;
4652;SDS011;9900;48.738;9.306;2023-04-25T11:07:51;2.37;;;1.57;;
4652;SDS011;9900;48.738;9.306;2023-04-25T11:10:43;1.53;;;1.43;;
4652;SDS011;9900;48.738;9.306;2023-04-25T11:13:12;2.10;;;2.00;;
4652;SDS011;9900;48.738;9.306;2023-04-25T11:15:41;1.70;;;1.60;;
4652;SDS011;9900;48.738;9.306;2023-04-25T11:18:10;2.20;;;2.10;;
4652;SDS011;9900;48.738;9.306;2023-04-25T11:20:44;2.80;;;1.93;;
4652;SDS011;9900;48.738;9.306;2023-04-25T11:23:13;3.03;;;2.33;;
4652;SDS011;9900;48.738;9.306;2023-04-25T11:25:43;3.63;;;2.80;;
4652;SDS011;9900;48.738;9.306;2023-04-25T11:28:12;3.20;;;2.70;;
4652;SDS011;9900;48.738;9.306;2023-04-25T11:30:47;3.30;;;2.80;;
4652;SDS011;9900;48.738;9.306;2023-04-25T11:33:16;1.97;;;1.60;;
4652;SDS011;9900;48.738;9.306;2023-04-25T11:35:45;1.87;;;1.17;;
4652;SDS011;9900;48.738;9.306;2023-04-25T11:38:13;1.47;;;1.20;;
4652;SDS011;9900;48.738;9.306;2023-04-25T11:40:43;1.50;;;1.10;;
4652;SDS011;9900;48.738;9.306;2023-04-25T11:43:12;1.40;;;1.30;;
4652;SDS011;9900;48.738;9.306;2023-04-25T11:45:41;1.20;;;1.00;;
4652;SDS011;9900;48.738;9.306;2023-04-25T11:48:10;1.83;;;1.30;;
4652;SDS011;9900;48.738;9.306;2023-04-25T11:50:38;1.50;;;1.40;;
4652;SDS011;9900;48.738;9.306;2023-04-25T11:53:07;1.30;;;1.20;;
4652;SDS011;9900;48.738;9.306;2023-04-25T11:55:36;1.77;;;1.63;;
4652;SDS011;9900;48.738;9.306;2023-04-25T11:58:06;1.37;;;1.27;;
4652;SDS011;9900;48.738;9.306;2023-04-25T12:00:35;2.00;;;1.37;;
4652;SDS011;9900;48.738;9.306;2023-04-25T12:03:04;2.17;;;2.00;;
4652;SDS011;9900;48.738;9.306;2023-04-25T12:05:33;2.10;;;1.90;;
4652;SDS011;9900;48.738;9.306;2023-04-25T12:08:11;2.13;;;1.50;;
4652;SDS011;9900;48.738;9.306;2023-04-25T12:10:41;5.63;;;2.20;;
4652;SDS011;9900;48.738;9.306;2023-04-25T12:13:21;2.70;;;2.23;;
4652;SDS011;9900;48.738;9.306;2023-04-25T12:15:50;2.10;;;1.90;;
4652;SDS011;9900;48.738;9.306;2023-04-25T12:18:19;2.50;;;2.30;;
4652;SDS011;9900;48.738;9.306;2023-04-25T12:20:49;1.90;;;1.70;;
4652;SDS011;9900;48.738;9.306;2023-04-25T12:23:20;2.30;;;2.10;;
4652;SDS011;9900;48.738;9.306;2023-04-25T12:25:53;2.40;;;2.20;;
4652;SDS011;9900;48.738;9.306;2023-04-25T12:28:24;4.10;;;2.50;;
4652;SDS011;9900;48.738;9.306;2023-04-25T12:30:55;2.50;;;2.30;;
4652;SDS011;9900;48.738;9.306;2023-04-25T12:33:26;2.53;;;2.30;;
4652;SDS011;9900;48.738;9.306;2023-04-25T12:35:55;3.93;;;2.40;;
4652;SDS011;9900;48.738;9.306;2023-04-25T12:38:25;5.00;;;2.67;;
4652;SDS011;9900;48.738;9.306;2023-04-25T12:40:54;2.53;;;2.00;;
4652;SDS011;9900;48.738;9.306;2023-04-25T12:43:23;4.10;;;2.40;;
4652;SDS011;9900;48.738;9.306;2023-04-25T12:45:53;5.40;;;2.07;;
4652;SDS011;9900;48.738;9.306;2023-04-25T12:48:23;3.53;;;3.23;;
4652;SDS011;9900;48.738;9.306;2023-04-25T12:50:52;4.10;;;3.20;;
4652;SDS011;9900;48.738;9.306;2023-04-25T12:53:21;4.40;;;4.00;;
4652;SDS011;9900;48.738;9.306;2023-04-25T12:55:51;3.73;;;3.43;;
4652;SDS011;9900;48.738;9.306;2023-04-25T12:58:26;6.73;;;3.13;;
4652;SDS011;9900;48.738;9.306;2023-04-25T13:00:54;4.80;;;3.50;;
4652;SDS011;9900;48.738;9.306;2023-04-25T13:03:23;5.63;;;3.60;;
4652;SDS011;9900;48.738;9.306;2023-04-25T13:05:52;4.43;;;4.03;;
4652;SDS011;9900;48.738;9.306;2023-04-25T13:08:21;4.70;;;4.20;;
4652;SDS011;9900;48.738;9.306;2023-04-25T13:10:50;6.90;;;4.43;;
4652;SDS011;9900;48.738;9.306;2023-04-25T13:13:19;4.60;;;4.17;;
4652;SDS011;9900;48.738;9.306;2023-04-25T13:15:49;6.10;;;3.90;;
4652;SDS011;9900;48.738;9.306;2023-04-25T13:18:18;4.73;;;4.23;;
4652;SDS011;9900;48.738;9.306;2023-04-25T13:20:47;6.17;;;5.00;;
4652;SDS011;9900;48.738;9.306;2023-04-25T13:23:15;5.50;;;4.30;;
4652;SDS011;9900;48.738;9.306;2023-04-25T13:25:44;5.80;;;4.10;;
4652;SDS011;9900;48.738;9.306;2023-04-25T13:28:13;4.97;;;4.00;;
4652;SDS011;9900;48.738;9.306;2023-04-25T13:30:42;5.30;;;3.30;;
4652;SDS011;9900;48.738;9.306;2023-04-25T13:33:12;4.73;;;4.23;;
4652;SDS011;9900;48.738;9.306;2023-04-25T13:35:41;5.70;;;3.60;;
4652;SDS011;9900;48.738;9.306;2023-04-25T13:38:10;8.27;;;4.70;;
4652;SDS011;9900;48.738;9.306;2023-04-25T13:40:39;5.67;;;3.80;;
4652;SDS011;9900;48.738;9.306;2023-04-25T13:43:08;9.20;;;4.00;;
4652;SDS011;9900;48.738;9.306;2023-04-25T13:45:36;5.20;;;4.70;;
4652;SDS011;9900;48.738;9.306;2023-04-25T13:48:05;5.47;;;4.70;;
4652;SDS011;9900;48.738;9.306;2023-04-25T13:50:35;8.97;;;5.60;;
4652;SDS011;9900;48.738;9.306;2023-04-25T13:53:04;7.03;;;5.00;;
4652;SDS011;9900;48.738;9.306;2023-04-25T13:55:33;5.67;;;4.80;;
4652;SDS011;9900;48.738;9.306;2023-04-25T13:58:02;7.97;;;4.80;;
4652;SDS011;9900;48.738;9.306;2023-04-25T14:00:35;8.07;;;4.23;;
4652;SDS011;9900;48.738;9.306;2023-04-25T14:03:05;8.20;;;4.40;;
4652;SDS011;9900;48.738;9.306;2023-04-25T14:05:37;5.00;;;4.50;;
4652;SDS011;9900;48.738;9.306;2023-04-25T14:08:07;6.37;;;5.03;;
4652;SDS011;9900;48.738;9.306;2023-04-25T14:10:36;6.17;;;4.50;;
4652;SDS011;9900;48.738;9.306;2023-04-25T14:13:05;5.70;;;5.10;;
4652;SDS011;9900;48.738;9.306;2023-04-25T14:15:37;7.93;;;5.23;;
4652;SDS011;9900;48.738;9.306;2023-04-25T14:18:05;5.60;;;4.53;;
4652;SDS011;9900;48.738;9.306;2023-04-25T14:20:34;6.47;;;4.37;;
4652;SDS011;9900;48.738;9.306;2023-04-25T14:23:04;6.50;;;5.53;;
4652;SDS011;9900;48.738;9.306;2023-04-25T14:25:33;9.07;;;5.10;;
4652;SDS011;9900;48.738;9.306;2023-04-25T14:28:02;7.13;;;4.43;;
4652;SDS011;9900;48.738;9.306;2023-04-25T14:30:31;6.33;;;5.27;;
4652;SDS011;9900;48.738;9.306;2023-04-25T14:33:00;9.43;;;5.33;;
4652;SDS011;9900;48.738;9.306;2023-04-25T14:35:29;7.70;;;5.20;;
4652;SDS011;9900;48.738;9.306;2023-04-25T14:37:58;7.83;;;5.77;;
4652;SDS011;9900;48.738;9.306;2023-04-25T14:40:28;7.00;;;5.83;;
4652;SDS011;9900;48.738;9.306;2023-04-25T14:42:56;7.87;;;6.03;;
4652;SDS011;9900;48.738;9.306;2023-04-25T14:45:25;8.83;;;5.20;;
4652;SDS011;9900;48.738;9.306;2023-04-25T14:47:54;5.67;;;4.90;;
4652;SDS011;9900;48.738;9.306;2023-04-25T14:50:23;8.27;;;5.53;;
4652;SDS011;9900;48.738;9.306;2023-04-25T14:52:51;7.07;;;4.13;;
4652;SDS011;9900;48.738;9.306;2023-04-25T14:55:20;13.17;;;5.93;;
4652;SDS011;9900;48.738;9.306;2023-04-25T14:57:50;7.67;;;5.17;;
4652;SDS011;9900;48.738;9.306;2023-04-25T15:00:19;6.33;;;4.67;;
4652;SDS011;9900;48.738;9.306;2023-04-25T15:02:49;6.70;;;5.40;;
4652;SDS011;9900;48.738;9.306;2023-04-25T15:05:18;7.03;;;5.20;;
4652;SDS011;9900;48.738;9.306;2023-04-25T15:07:47;7.33;;;5.20;;
4652;SDS011;9900;48.738;9.306;2023-04-25T15:10:16;8.60;;;4.63;;
4652;SDS011;9900;48.738;9.306;2023-04-25T15:12:45;7.40;;;5.67;;
4652;SDS011;9900;48.738;9.306;2023-04-25T15:15:15;11.00;;;6.37;;
4652;SDS011;9900;48.738;9.306;2023-04-25T15:17:52;9.90;;;5.40;;
4652;SDS011;9900;48.738;9.306;2023-04-25T15:20:25;7.90;;;6.33;;
4652;SDS011;9900;48.738;9.306;2023-04-25T15:22:54;6.73;;;5.40;;
4652;SDS011;9900;48.738;9.306;2023-04-25T15:25:23;5.70;;;4.77;;
4652;SDS011;9900;48.738;9.306;2023-04-25T15:27:52;5.23;;;4.47;;
4652;SDS011;9900;48.738;9.306;2023-04-25T15:30:23;10.00;;;4.67;;